createdAt,value
2018-09-03T00:02:04.879Z,22.03
2018-09-03T00:04:33.473Z,23.00
2018-09-03T00:07:02.007Z,21.90
2018-09-03T00:09:35.907Z,22.80
2018-09-03T00:12:04.374Z,21.80
2018-09-03T00:14:32.804Z,21.40
2018-09-03T00:17:01.293Z,22.37
2018-09-03T00:19:29.789Z,20.97
2018-09-03T00:21:58.295Z,21.37
2018-09-03T00:24:26.781Z,21.27
2018-09-03T00:26:55.247Z,21.67
2018-09-03T00:29:23.763Z,21.90
2018-09-03T00:31:57.494Z,21.50
2018-09-03T00:34:31.364Z,21.60
2018-09-03T00:38:05.191Z,21.70
2018-09-03T00:40:38.962Z,20.63
2018-09-03T00:43:12.745Z,20.83
2018-09-03T00:45:46.580Z,20.33
2018-09-03T00:48:15.063Z,20.03
2018-09-03T00:50:43.505Z,19.17
2018-09-03T00:53:11.961Z,20.00
2018-09-03T00:55:40.433Z,18.77
2018-09-03T00:58:08.953Z,19.77
2018-09-03T01:00:37.448Z,19.97
2018-09-03T01:03:05.992Z,20.43
2018-09-03T01:05:34.495Z,20.37
2018-09-03T01:08:02.997Z,20.10
2018-09-03T01:10:31.485Z,20.50
2018-09-03T01:12:59.965Z,20.70
2018-09-03T01:15:30.358Z,21.17
2018-09-03T01:18:00.596Z,20.30
2018-09-03T01:20:29.056Z,19.80
2018-09-03T01:22:57.558Z,20.97
2018-09-03T01:25:26.014Z,20.70
2018-09-03T01:27:54.463Z,19.93
2018-09-03T01:30:22.893Z,19.43
2018-09-03T01:32:51.338Z,20.17
2018-09-03T01:35:19.768Z,20.30
2018-09-03T01:37:48.308Z,19.17
2018-09-03T01:40:16.797Z,20.73
2018-09-03T01:42:45.245Z,20.57
2018-09-03T01:45:13.694Z,19.87
2018-09-03T01:47:42.134Z,19.43
2018-09-03T01:50:10.811Z,19.23
2018-09-03T01:52:39.276Z,19.87
2018-09-03T01:55:07.723Z,19.00
2018-09-03T01:57:36.363Z,18.37
2018-09-03T02:00:04.973Z,18.73
2018-09-03T02:02:33.411Z,19.17
2018-09-03T02:05:01.897Z,19.00
2018-09-03T02:07:30.415Z,18.50
2018-09-03T02:09:58.879Z,18.50
2018-09-03T02:12:27.329Z,19.77
2018-09-03T02:14:55.763Z,19.07
2018-09-03T02:17:24.244Z,19.43
2018-09-03T02:19:52.696Z,19.43
2018-09-03T02:22:21.158Z,18.97
2018-09-03T02:24:49.602Z,18.83
2018-09-03T02:27:18.113Z,18.93
2018-09-03T02:29:46.588Z,19.47
2018-09-03T02:32:15.092Z,19.23
2018-09-03T02:34:43.598Z,18.87
2018-09-03T02:37:12.130Z,19.37
2018-09-03T02:39:40.890Z,20.20
2018-09-03T02:42:11.160Z,19.60
2018-09-03T02:44:39.612Z,19.50
2018-09-03T02:47:08.165Z,19.27
2018-09-03T02:49:36.652Z,18.90
2018-09-03T02:52:05.202Z,19.43
2018-09-03T02:54:33.652Z,19.53
2018-09-03T02:57:02.140Z,19.63
2018-09-03T02:59:30.638Z,19.73
2018-09-03T03:01:59.089Z,19.80
2018-09-03T03:04:27.493Z,19.73
2018-09-03T03:06:55.982Z,20.53
2018-09-03T03:09:24.484Z,20.53
2018-09-03T03:11:52.967Z,21.20
2018-09-03T03:14:21.424Z,20.60
2018-09-03T03:16:49.849Z,20.87
2018-09-03T03:19:18.306Z,21.67
2018-09-03T03:21:46.802Z,21.60
2018-09-03T03:24:15.312Z,21.23
2018-09-03T03:26:43.778Z,22.13
2018-09-03T03:29:12.266Z,22.53
2018-09-03T03:31:40.743Z,22.43
2018-09-03T03:34:09.239Z,22.00
2018-09-03T03:36:37.751Z,22.10
2018-09-03T03:39:07.149Z,22.67
2018-09-03T03:41:35.923Z,23.43
2018-09-03T03:44:04.431Z,21.87
2018-09-03T03:46:33.057Z,21.90
2018-09-03T03:49:01.579Z,22.20
2018-09-03T03:51:30.061Z,22.57
2018-09-03T03:53:58.543Z,23.13
2018-09-03T03:56:27.068Z,22.37
2018-09-03T03:58:55.588Z,23.40
2018-09-03T04:01:24.111Z,22.73
2018-09-03T04:03:52.577Z,21.93
2018-09-03T04:06:21.043Z,23.77
2018-09-03T04:08:49.473Z,24.70
2018-09-03T04:11:17.961Z,24.03
2018-09-03T04:13:46.427Z,23.57
2018-09-03T04:16:14.900Z,25.73
2018-09-03T04:18:43.349Z,26.20
2018-09-03T04:21:11.799Z,25.07
2018-09-03T04:23:40.266Z,26.53
2018-09-03T04:26:08.742Z,25.90
2018-09-03T04:28:37.187Z,27.43
2018-09-03T04:31:05.663Z,26.07
2018-09-03T04:33:34.106Z,26.07
2018-09-03T04:36:03.172Z,27.57
2018-09-03T04:38:31.635Z,28.17
2018-09-03T04:41:00.096Z,28.70
2018-09-03T04:43:28.598Z,27.90
2018-09-03T04:45:57.370Z,28.00
2018-09-03T04:48:25.867Z,27.07
2018-09-03T04:50:54.542Z,28.00
2018-09-03T04:53:23.109Z,28.67
2018-09-03T04:55:51.554Z,27.60
2018-09-03T04:58:20.416Z,28.47
2018-09-03T05:00:48.894Z,27.30
2018-09-03T05:03:17.330Z,27.27
2018-09-03T05:05:45.883Z,28.63
2018-09-03T05:08:14.266Z,31.70
2018-09-03T05:10:42.794Z,31.53
2018-09-03T05:13:11.250Z,31.87
2018-09-03T05:15:39.706Z,31.40
2018-09-03T05:18:08.182Z,32.33
2018-09-03T05:20:36.722Z,32.00
2018-09-03T05:23:05.488Z,30.73
2018-09-03T05:25:33.953Z,30.20
2018-09-03T05:28:02.429Z,30.27
2018-09-03T05:30:30.966Z,30.53
2018-09-03T05:32:59.563Z,30.87
2018-09-03T05:35:28.000Z,30.73
2018-09-03T05:37:56.441Z,30.77
2018-09-03T05:40:24.910Z,31.17
2018-09-03T05:42:53.409Z,31.03
2018-09-03T05:45:21.865Z,30.87
2018-09-03T05:47:50.336Z,30.63
2018-09-03T05:50:18.901Z,31.37
2018-09-03T05:52:47.283Z,29.93
2018-09-03T05:55:15.883Z,31.33
2018-09-03T05:57:44.339Z,30.57
2018-09-03T06:00:12.865Z,30.73
2018-09-03T06:02:41.382Z,30.27
2018-09-03T06:05:09.929Z,32.03
2018-09-03T06:07:40.062Z,30.17
2018-09-03T06:10:08.618Z,30.23
2018-09-03T06:12:37.366Z,29.40
2018-09-03T06:15:05.833Z,30.90
2018-09-03T06:17:34.321Z,30.70
2018-09-03T06:20:02.810Z,30.03
2018-09-03T06:22:31.289Z,29.93
2018-09-03T06:24:59.802Z,29.70
2018-09-03T06:27:28.291Z,30.90
2018-09-03T06:29:56.760Z,31.83
2018-09-03T06:32:25.248Z,33.10
2018-09-03T06:34:53.714Z,30.47
2018-09-03T06:37:22.196Z,30.67
2018-09-03T06:39:50.680Z,29.17
2018-09-03T06:42:19.159Z,28.60
2018-09-03T06:44:47.656Z,27.10
2018-09-03T06:47:16.184Z,27.67
2018-09-03T06:49:44.678Z,28.00
2018-09-03T06:52:13.182Z,26.60
2018-09-03T06:54:41.630Z,25.90
2018-09-03T06:57:10.053Z,24.77
2018-09-03T06:59:38.662Z,21.73
2018-09-03T07:02:07.740Z,20.50
2018-09-03T07:04:36.446Z,18.80
2018-09-03T07:07:05.437Z,18.67
2018-09-03T07:09:33.931Z,17.97
2018-09-03T07:12:02.446Z,17.00
2018-09-03T07:14:30.926Z,17.60
2018-09-03T07:16:59.387Z,17.00
2018-09-03T07:19:27.912Z,16.47
2018-09-03T07:22:02.913Z,16.13
2018-09-03T07:24:31.365Z,17.90
2018-09-03T07:27:01.113Z,17.87
2018-09-03T07:29:29.593Z,18.33
2018-09-03T07:31:58.043Z,18.57
2018-09-03T07:34:26.576Z,18.23
2018-09-03T07:36:55.874Z,19.03
2018-09-03T07:39:24.360Z,17.97
2018-09-03T07:41:52.921Z,16.30
2018-09-03T07:44:21.353Z,16.20
2018-09-03T07:46:49.809Z,15.97
2018-09-03T07:49:18.292Z,14.03
2018-09-03T07:51:46.738Z,13.57
2018-09-03T07:54:15.178Z,13.73
2018-09-03T07:56:43.656Z,12.97
2018-09-03T07:59:17.626Z,13.30
2018-09-03T08:01:46.071Z,11.27
2018-09-03T08:04:14.488Z,10.80
2018-09-03T08:06:42.902Z,11.00
2018-09-03T08:09:12.210Z,11.23
2018-09-03T08:11:40.726Z,9.90
2018-09-03T08:14:09.145Z,11.27
2018-09-03T08:16:37.620Z,10.80
2018-09-03T08:19:06.125Z,11.20
2018-09-03T08:21:34.554Z,10.53
2018-09-03T08:24:02.969Z,12.07
2018-09-03T08:26:31.437Z,11.73
2018-09-03T08:28:59.926Z,12.70
2018-09-03T08:31:28.373Z,13.03
2018-09-03T08:33:56.820Z,12.27
2018-09-03T08:36:25.270Z,13.57
2018-09-03T08:38:53.730Z,12.97
2018-09-03T08:41:22.267Z,13.27
2018-09-03T08:43:50.698Z,13.97
2018-09-03T08:46:19.208Z,14.07
2018-09-03T08:48:47.669Z,15.27
2018-09-03T08:51:16.168Z,15.87
2018-09-03T08:53:44.617Z,14.97
2018-09-03T08:56:13.096Z,13.87
2018-09-03T08:58:41.644Z,15.27
2018-09-03T09:01:10.081Z,12.90
2018-09-03T09:03:40.518Z,13.10
2018-09-03T09:06:09.272Z,12.33
2018-09-03T09:08:37.762Z,12.10
2018-09-03T09:11:07.364Z,11.83
2018-09-03T09:13:35.843Z,13.10
2018-09-03T09:16:04.327Z,13.27
2018-09-03T09:18:32.806Z,13.80
2018-09-03T09:21:01.249Z,13.43
2018-09-03T09:23:29.706Z,13.40
2018-09-03T09:25:58.197Z,13.80
2018-09-03T09:28:26.661Z,13.67
2018-09-03T09:30:55.150Z,13.70
2018-09-03T09:33:23.613Z,14.77
2018-09-03T09:35:52.112Z,13.13
2018-09-03T09:38:20.545Z,13.17
2018-09-03T09:40:49.035Z,13.53
2018-09-03T09:43:17.567Z,13.87
2018-09-03T09:45:45.977Z,13.83
2018-09-03T09:48:15.463Z,13.70
2018-09-03T09:50:43.905Z,14.17
2018-09-03T09:53:12.434Z,13.33
2018-09-03T09:55:40.869Z,13.97
2018-09-03T09:58:09.305Z,14.33
2018-09-03T10:00:43.216Z,13.83
2018-09-03T10:03:11.747Z,13.40
2018-09-03T10:05:40.154Z,13.90
2018-09-03T10:08:08.592Z,13.60
2018-09-03T10:10:37.006Z,12.90
2018-09-03T10:13:05.459Z,12.50
2018-09-03T10:15:34.007Z,12.47
2018-09-03T10:18:02.578Z,11.70
2018-09-03T10:20:31.152Z,12.43
2018-09-03T10:22:59.783Z,11.40
2018-09-03T10:25:28.239Z,11.27
2018-09-03T10:27:56.750Z,10.67
2018-09-03T10:30:25.227Z,10.80
2018-09-03T10:32:53.736Z,9.73
2018-09-03T10:35:22.158Z,9.37
2018-09-03T10:37:50.630Z,9.10
2018-09-03T10:40:19.083Z,8.70
2018-09-03T10:42:47.546Z,9.10
2018-09-03T10:45:16.005Z,9.50
2018-09-03T10:47:44.596Z,8.60
2018-09-03T10:50:13.063Z,8.63
2018-09-03T10:52:41.526Z,8.50
2018-09-03T10:55:10.056Z,8.23
2018-09-03T10:57:38.559Z,8.40
2018-09-03T11:00:08.258Z,8.37
2018-09-03T11:02:36.748Z,8.37
2018-09-03T11:05:05.271Z,7.77
2018-09-03T11:07:33.742Z,7.70
2018-09-03T11:10:02.252Z,7.53
2018-09-03T11:12:30.757Z,7.93
2018-09-03T11:14:59.257Z,7.57
2018-09-03T11:17:27.769Z,7.43
2018-09-03T11:19:58.496Z,7.47
2018-09-03T11:22:27.067Z,6.97
2018-09-03T11:24:55.640Z,6.93
2018-09-03T11:27:24.102Z,5.70
2018-09-03T11:29:52.583Z,5.37
2018-09-03T11:32:21.720Z,5.97
2018-09-03T11:34:50.198Z,5.90
2018-09-03T11:37:18.678Z,5.10
2018-09-03T11:39:47.138Z,5.90
2018-09-03T11:42:15.605Z,5.97
2018-09-03T11:44:44.143Z,5.90
2018-09-03T11:47:12.676Z,5.90
2018-09-03T11:49:41.135Z,5.97
2018-09-03T11:52:10.221Z,6.10
2018-09-03T11:54:38.747Z,6.00
2018-09-03T11:57:07.371Z,6.27
2018-09-03T11:59:35.837Z,6.37
2018-09-03T12:02:05.085Z,5.90
2018-09-03T12:04:33.552Z,6.03
2018-09-03T12:07:02.205Z,6.10
2018-09-03T12:09:30.636Z,5.83
2018-09-03T12:11:59.111Z,5.90
2018-09-03T12:14:31.009Z,6.40
2018-09-03T12:17:00.012Z,6.23
2018-09-03T12:19:28.512Z,6.07
2018-09-03T12:21:56.920Z,6.20
2018-09-03T12:24:25.410Z,6.20
2018-09-03T12:26:53.878Z,6.70
2018-09-03T12:29:22.335Z,6.70
2018-09-03T12:31:50.796Z,6.90
2018-09-03T12:34:19.274Z,6.20
2018-09-03T12:36:47.748Z,6.40
2018-09-03T12:39:16.230Z,6.17
2018-09-03T12:41:44.718Z,6.50
2018-09-03T12:44:13.178Z,6.47
2018-09-03T12:46:41.647Z,6.67
2018-09-03T12:49:10.067Z,6.43
2018-09-03T12:51:38.530Z,6.13
2018-09-03T12:54:06.985Z,5.90
2018-09-03T12:56:35.423Z,5.90
2018-09-03T12:59:03.931Z,6.40
2018-09-03T13:01:32.437Z,7.07
2018-09-03T13:04:00.899Z,7.30
2018-09-03T13:06:29.426Z,6.83
2018-09-03T13:08:57.891Z,5.90
2018-09-03T13:11:26.413Z,6.60
2018-09-03T13:13:54.951Z,6.80
2018-09-03T13:16:23.412Z,6.67
2018-09-03T13:18:51.937Z,6.20
2018-09-03T13:21:20.424Z,6.30
2018-09-03T13:23:48.969Z,5.90
2018-09-03T13:26:17.471Z,6.90
2018-09-03T13:28:45.978Z,6.57
2018-09-03T13:31:14.490Z,6.20
2018-09-03T13:33:42.996Z,6.70
2018-09-03T13:36:11.505Z,6.93
2018-09-03T13:38:39.963Z,6.77
2018-09-03T13:41:20.456Z,6.70
2018-09-03T13:43:48.916Z,6.50
2018-09-03T13:46:17.362Z,6.70
2018-09-03T13:48:45.828Z,7.07
2018-09-03T13:51:14.242Z,6.50
2018-09-03T13:53:42.700Z,6.17
2018-09-03T13:56:11.182Z,6.50
2018-09-03T13:58:39.659Z,6.80
2018-09-03T14:01:08.133Z,6.90
2018-09-03T14:03:36.586Z,6.43
2018-09-03T14:06:05.068Z,6.47
2018-09-03T14:08:33.521Z,6.30
2018-09-03T14:11:02.022Z,6.67
2018-09-03T14:13:30.480Z,7.00
2018-09-03T14:15:58.929Z,6.17
2018-09-03T14:18:27.761Z,6.77
2018-09-03T14:20:56.259Z,6.53
2018-09-03T14:23:24.767Z,7.17
2018-09-03T14:25:56.159Z,6.70
2018-09-03T14:28:24.697Z,6.97
2018-09-03T14:30:53.158Z,7.27
2018-09-03T14:33:21.625Z,6.53
2018-09-03T14:35:50.196Z,6.63
2018-09-03T14:38:18.677Z,6.60
2018-09-03T14:40:47.183Z,6.87
2018-09-03T14:43:15.700Z,6.80
2018-09-03T14:45:44.167Z,7.20
2018-09-03T14:48:12.693Z,8.67
2018-09-03T14:50:41.173Z,6.57
2018-09-03T14:53:09.665Z,5.93
2018-09-03T14:55:38.089Z,6.47
2018-09-03T14:58:06.511Z,6.47
2018-09-03T15:00:35.044Z,6.30
2018-09-03T15:03:03.507Z,6.60
2018-09-03T15:05:31.997Z,6.40
2018-09-03T15:08:00.540Z,6.97
2018-09-03T15:10:36.548Z,6.97
2018-09-03T15:13:30.617Z,6.53
2018-09-03T15:16:14.744Z,6.60
2018-09-03T15:18:54.501Z,6.73
2018-09-03T15:21:22.955Z,6.60
2018-09-03T15:23:51.577Z,6.60
2018-09-03T15:26:20.196Z,6.63
2018-09-03T15:28:48.575Z,6.80
2018-09-03T15:31:17.165Z,5.97
2018-09-03T15:33:46.270Z,6.80
2018-09-03T15:36:16.066Z,6.20
2018-09-03T15:38:44.859Z,5.90
2018-09-03T15:41:13.339Z,6.20
2018-09-03T15:43:41.825Z,6.00
2018-09-03T15:46:10.804Z,6.10
2018-09-03T15:48:39.465Z,6.73
2018-09-03T15:51:07.888Z,6.50
2018-09-03T15:53:36.442Z,6.10
2018-09-03T15:56:04.997Z,6.50
2018-09-03T15:58:33.534Z,6.60
2018-09-03T16:01:02.080Z,6.77
2018-09-03T16:03:30.622Z,7.00
2018-09-03T16:06:00.027Z,6.93
2018-09-03T16:08:28.526Z,7.07
2018-09-03T16:10:57.084Z,6.90
2018-09-03T16:13:25.547Z,6.37
2018-09-03T16:15:54.144Z,6.40
2018-09-03T16:18:22.708Z,6.90
2018-09-03T16:20:51.353Z,6.80
2018-09-03T16:23:19.857Z,7.13
2018-09-03T16:25:48.432Z,6.80
2018-09-03T16:28:18.273Z,8.00
2018-09-03T17:05:47.100Z,8.97
2018-09-03T17:11:55.717Z,9.87
2018-09-03T17:14:28.193Z,9.70
2018-09-03T17:17:08.583Z,10.23
2018-09-03T17:20:49.967Z,10.50
2018-09-03T17:26:45.770Z,11.00
2018-09-03T17:29:14.358Z,11.47
2018-09-03T17:31:42.825Z,12.00
2018-09-03T17:34:11.361Z,11.67
2018-09-03T17:36:39.861Z,12.27
2018-09-03T17:39:08.900Z,12.77
2018-09-03T17:41:37.475Z,12.80
2018-09-03T17:44:06.052Z,13.93
2018-09-03T17:46:36.074Z,14.13
2018-09-03T17:49:04.643Z,13.83
2018-09-03T17:51:33.114Z,14.07
2018-09-03T17:54:06.127Z,15.43
2018-09-03T17:56:34.613Z,14.17
2018-09-03T17:59:03.126Z,15.07
2018-09-03T18:01:31.638Z,14.97
2018-09-03T18:04:00.180Z,15.70
2018-09-03T18:06:28.690Z,15.33
2018-09-03T18:08:57.139Z,15.50
2018-09-03T18:11:25.615Z,13.90
2018-09-03T18:13:54.296Z,14.40
2018-09-03T18:16:22.855Z,13.53
2018-09-03T18:18:51.947Z,14.00
2018-09-03T18:21:20.446Z,13.90
2018-09-03T18:23:48.923Z,13.70
2018-09-03T18:26:17.401Z,13.90
2018-09-03T18:28:45.872Z,13.87
2018-09-03T18:31:14.352Z,13.80
2018-09-03T18:33:42.817Z,14.37
2018-09-03T18:36:11.302Z,14.17
2018-09-03T18:38:39.777Z,13.87
2018-09-03T18:41:08.333Z,14.47
2018-09-03T18:43:36.803Z,15.07
2018-09-03T18:46:05.285Z,14.67
2018-09-03T18:48:33.841Z,14.97
2018-09-03T18:51:02.307Z,15.90
2018-09-03T18:53:30.822Z,15.43
2018-09-03T18:55:59.269Z,14.80
2018-09-03T18:58:27.757Z,15.43
2018-09-03T19:00:56.263Z,14.83
2018-09-03T19:03:26.448Z,14.73
2018-09-03T19:59:17.579Z,22.47
2018-09-03T20:01:46.045Z,22.97
2018-09-03T20:04:14.491Z,23.63
2018-09-03T20:06:42.961Z,23.47
2018-09-03T20:09:11.419Z,24.13
2018-09-03T20:11:39.936Z,24.27
2018-09-03T20:14:08.396Z,23.03
2018-09-03T20:16:37.077Z,25.07
2018-09-03T20:19:05.565Z,23.50
2018-09-03T20:21:34.033Z,23.97
2018-09-03T20:24:02.533Z,24.90
2018-09-03T20:26:31.039Z,24.77
2018-09-03T20:28:59.561Z,25.93
2018-09-03T20:36:59.289Z,26.03
2018-09-03T20:40:15.872Z,26.60
2018-09-03T20:42:44.438Z,26.97
2018-09-03T20:45:19.033Z,27.47
2018-09-03T20:48:04.547Z,27.20
2018-09-03T20:56:44.790Z,28.83
2018-09-03T20:59:38.586Z,30.03
2018-09-03T21:02:32.173Z,29.67
2018-09-03T21:05:33.845Z,31.10
2018-09-03T21:11:44.348Z,33.13
2018-09-03T21:14:39.442Z,34.53
2018-09-03T21:17:46.233Z,36.17
2018-09-03T21:20:38.760Z,34.77
2018-09-03T21:23:48.325Z,37.43
2018-09-03T21:27:01.475Z,36.90
2018-09-03T22:51:53.320Z,27.17
2018-09-03T22:54:50.508Z,27.57
2018-09-03T22:57:30.458Z,27.77
2018-09-03T23:05:36.999Z,27.73
2018-09-03T23:08:18.394Z,29.53
2018-09-03T23:10:54.770Z,28.10
2018-09-03T23:13:29.352Z,28.53
2018-09-03T23:16:06.007Z,28.40
2018-09-03T23:18:55.113Z,27.93
2018-09-03T23:21:25.498Z,29.77
2018-09-03T23:24:07.606Z,29.87
2018-09-03T23:26:50.083Z,29.83
2018-09-03T23:29:28.896Z,29.43
2018-09-03T23:32:06.641Z,30.67
2018-09-03T23:34:59.111Z,32.17
2018-09-03T23:37:31.823Z,30.37
2018-09-03T23:40:08.755Z,31.07
